createdAt,value
2019-06-26T00:00:10.242Z,22.93
2019-06-26T00:02:40.704Z,22.93
2019-06-26T00:05:11.315Z,22.98
2019-06-26T00:07:41.681Z,23.10
2019-06-26T00:10:14.123Z,23.11
2019-06-26T00:12:45.732Z,23.15
2019-06-26T00:15:16.728Z,23.15
2019-06-26T00:17:47.448Z,23.23
2019-06-26T00:20:18.053Z,23.32
2019-06-26T00:22:48.438Z,23.32
2019-06-26T00:25:18.949Z,23.35
2019-06-26T00:27:49.440Z,23.30
2019-06-26T00:30:19.857Z,23.30
2019-06-26T00:32:50.391Z,23.31
2019-06-26T00:35:20.690Z,23.24
2019-06-26T00:37:51.015Z,23.21
2019-06-26T00:40:21.564Z,23.26
2019-06-26T00:42:52.015Z,23.22
2019-06-26T00:45:22.351Z,23.16
2019-06-26T00:47:52.852Z,23.09
2019-06-26T00:50:23.319Z,23.04
2019-06-26T00:52:54.088Z,23.03
2019-06-26T00:55:24.535Z,22.98
2019-06-26T00:57:54.878Z,22.93
2019-06-26T01:00:30.957Z,22.95
2019-06-26T01:03:01.393Z,22.94
2019-06-26T01:05:31.844Z,22.91
2019-06-26T01:08:02.297Z,22.82
2019-06-26T01:10:32.769Z,22.78
2019-06-26T01:13:03.158Z,22.80
2019-06-26T01:15:34.123Z,22.79
2019-06-26T01:18:04.493Z,22.74
2019-06-26T01:20:34.907Z,22.77
2019-06-26T01:23:05.528Z,22.78
2019-06-26T01:25:35.838Z,22.71
2019-06-26T01:28:08.024Z,22.72
2019-06-26T01:30:39.201Z,22.73
2019-06-26T01:33:10.107Z,22.72
2019-06-26T01:35:40.487Z,22.72
2019-06-26T01:38:10.863Z,22.75
2019-06-26T01:40:41.386Z,22.75
2019-06-26T01:43:11.806Z,22.72
2019-06-26T01:45:42.298Z,22.75
2019-06-26T01:48:12.692Z,22.78
2019-06-26T01:50:43.057Z,22.82
2019-06-26T01:53:13.829Z,22.86
2019-06-26T01:55:44.418Z,22.85
2019-06-26T01:58:15.177Z,22.87
2019-06-26T02:00:45.623Z,22.79
2019-06-26T02:03:16.831Z,22.80
2019-06-26T02:05:47.161Z,22.85
2019-06-26T02:08:17.577Z,22.83
2019-06-26T02:10:47.919Z,22.81
2019-06-26T02:13:18.425Z,22.80
2019-06-26T02:15:48.879Z,22.86
2019-06-26T02:18:44.205Z,22.82
2019-06-26T02:21:14.635Z,22.76
2019-06-26T02:23:44.964Z,22.75
2019-06-26T02:26:15.442Z,22.74
2019-06-26T02:28:45.821Z,22.81
2019-06-26T02:31:16.175Z,22.76
2019-06-26T02:33:46.523Z,22.80
2019-06-26T02:36:17.163Z,22.82
2019-06-26T02:38:47.481Z,22.87
2019-06-26T02:41:18.227Z,22.83
2019-06-26T02:43:48.876Z,22.86
2019-06-26T02:46:19.300Z,22.90
2019-06-26T02:48:49.809Z,22.88
2019-06-26T02:51:20.192Z,22.91
2019-06-26T02:53:50.513Z,22.93
2019-06-26T02:56:20.859Z,22.94
2019-06-26T02:58:51.474Z,23.02
2019-06-26T03:01:22.196Z,23.18
2019-06-26T03:03:52.564Z,23.17
2019-06-26T03:06:23.048Z,23.24
2019-06-26T03:08:54.935Z,23.39
2019-06-26T03:11:25.237Z,23.55
2019-06-26T03:13:55.907Z,23.87
2019-06-26T03:16:26.264Z,24.22
2019-06-26T03:18:56.922Z,24.58
2019-06-26T03:21:27.365Z,24.87
2019-06-26T03:23:57.695Z,25.18
2019-06-26T03:26:28.017Z,25.60
2019-06-26T03:28:58.542Z,25.84
2019-06-26T03:31:28.860Z,25.93
2019-06-26T03:33:59.269Z,26.06
2019-06-26T03:36:29.696Z,26.39
2019-06-26T03:39:00.021Z,26.49
2019-06-26T03:41:30.894Z,26.70
2019-06-26T03:44:02.450Z,26.92
2019-06-26T03:46:32.814Z,27.28
2019-06-26T03:49:03.827Z,27.15
2019-06-26T03:51:34.326Z,27.40
2019-06-26T03:54:05.573Z,27.60
2019-06-26T03:56:35.914Z,27.71
2019-06-26T03:59:06.356Z,27.99
2019-06-26T04:01:36.728Z,28.10
2019-06-26T04:04:07.128Z,28.48
2019-06-26T04:06:37.467Z,28.45
2019-06-26T04:09:08.973Z,28.51
2019-06-26T04:11:39.296Z,29.02
2019-06-26T04:14:09.813Z,29.20
2019-06-26T04:16:40.189Z,29.21
2019-06-26T04:19:10.543Z,29.08
2019-06-26T04:21:41.008Z,29.42
2019-06-26T04:24:11.429Z,29.60
2019-06-26T04:26:41.734Z,29.65
2019-06-26T04:29:12.174Z,30.19
2019-06-26T04:31:42.540Z,30.54
2019-06-26T04:34:14.028Z,30.47
2019-06-26T04:36:44.675Z,31.05
2019-06-26T04:39:15.016Z,31.18
2019-06-26T04:41:45.326Z,30.49
2019-06-26T04:44:15.732Z,30.63
2019-06-26T04:46:46.194Z,30.83
2019-06-26T04:49:16.587Z,30.68
2019-06-26T04:51:47.231Z,31.08
2019-06-26T04:54:17.782Z,31.14
2019-06-26T04:56:48.126Z,31.45
2019-06-26T04:59:18.571Z,31.46
2019-06-26T05:01:49.035Z,31.57
2019-06-26T05:04:20.869Z,31.56
2019-06-26T05:06:51.722Z,32.03
2019-06-26T05:09:22.176Z,32.19
2019-06-26T05:11:52.606Z,32.02
2019-06-26T05:14:23.987Z,33.04
2019-06-26T05:16:55.059Z,33.16
2019-06-26T05:19:27.676Z,32.67
2019-06-26T05:21:58.447Z,33.04
2019-06-26T05:24:28.830Z,33.21
2019-06-26T05:26:59.314Z,33.47
2019-06-26T05:29:32.250Z,33.75
2019-06-26T05:32:02.644Z,34.05
2019-06-26T05:34:33.058Z,34.03
2019-06-26T05:37:03.432Z,34.29
2019-06-26T05:39:33.869Z,33.19
2019-06-26T05:42:06.637Z,33.42
2019-06-26T05:44:36.395Z,33.47
2019-06-26T05:47:07.314Z,33.37
2019-06-26T05:49:37.780Z,33.34
2019-06-26T05:52:08.208Z,33.25
2019-06-26T05:54:38.647Z,33.01
2019-06-26T05:57:09.024Z,33.39
2019-06-26T05:59:39.373Z,33.43
2019-06-26T06:02:10.182Z,33.40
2019-06-26T06:04:40.606Z,33.85
2019-06-26T06:07:11.065Z,34.63
2019-06-26T06:09:42.235Z,33.99
2019-06-26T06:12:12.797Z,34.52
2019-06-26T06:14:43.186Z,34.41
2019-06-26T06:17:13.679Z,34.71
2019-06-26T06:19:44.635Z,34.95
2019-06-26T06:22:15.050Z,34.77
2019-06-26T06:24:45.562Z,35.01
2019-06-26T06:27:15.948Z,34.85
2019-06-26T06:29:46.285Z,34.91
2019-06-26T06:32:16.588Z,35.62
2019-06-26T06:34:47.720Z,35.11
2019-06-26T06:37:18.103Z,34.54
2019-06-26T06:39:48.520Z,34.42
2019-06-26T06:42:18.998Z,33.20
2019-06-26T06:44:49.898Z,33.55
2019-06-26T06:47:20.254Z,34.13
2019-06-26T06:49:50.648Z,34.13
2019-06-26T06:52:21.097Z,34.39
2019-06-26T06:54:51.519Z,33.90
2019-06-26T06:57:21.990Z,33.59
2019-06-26T06:59:52.399Z,34.22
2019-06-26T07:02:22.778Z,34.16
2019-06-26T07:04:53.147Z,34.56
2019-06-26T07:07:23.523Z,34.37
2019-06-26T07:09:53.820Z,34.00
2019-06-26T07:12:24.339Z,34.01
2019-06-26T07:14:54.733Z,33.40
2019-06-26T07:17:25.134Z,33.53
2019-06-26T07:19:55.629Z,34.22
2019-06-26T07:22:26.128Z,34.67
2019-06-26T07:24:56.565Z,34.66
2019-06-26T07:27:26.976Z,34.64
2019-06-26T07:29:57.346Z,34.74
2019-06-26T07:32:27.823Z,34.80
2019-06-26T07:34:58.232Z,34.78
2019-06-26T07:37:28.565Z,34.82
2019-06-26T07:40:02.145Z,34.03
2019-06-26T07:42:31.420Z,34.30
2019-06-26T07:45:01.754Z,34.57
2019-06-26T07:47:43.169Z,33.96
2019-06-26T07:50:06.038Z,34.16
2019-06-26T07:52:36.381Z,33.40
2019-06-26T07:55:06.916Z,33.42
2019-06-26T07:57:37.441Z,33.50
2019-06-26T08:00:08.366Z,33.24
2019-06-26T08:02:38.736Z,33.10
2019-06-26T08:05:09.580Z,32.52
2019-06-26T08:07:40.016Z,32.50
2019-06-26T08:10:10.775Z,32.17
2019-06-26T08:12:41.225Z,33.00
2019-06-26T08:15:11.915Z,33.52
2019-06-26T08:17:58.787Z,32.90
2019-06-26T08:20:14.625Z,31.81
2019-06-26T08:22:45.023Z,30.95
2019-06-26T08:25:15.609Z,30.78
2019-06-26T08:27:46.172Z,30.88
2019-06-26T08:30:16.838Z,30.69
2019-06-26T08:32:47.155Z,30.51
2019-06-26T08:35:18.194Z,30.61
2019-06-26T08:37:48.563Z,30.47
2019-06-26T08:40:19.547Z,30.43
2019-06-26T08:42:49.989Z,30.34
2019-06-26T08:45:20.557Z,30.41
2019-06-26T08:47:51.411Z,30.35
2019-06-26T08:50:22.053Z,30.40
2019-06-26T08:52:52.380Z,30.12
2019-06-26T08:55:22.946Z,30.12
2019-06-26T08:57:53.587Z,29.98
2019-06-26T09:00:24.334Z,30.08
2019-06-26T09:02:55.097Z,30.17
2019-06-26T09:05:26.006Z,30.40
2019-06-26T09:07:56.392Z,30.59
2019-06-26T09:10:26.844Z,30.50
2019-06-26T09:12:57.398Z,30.51
2019-06-26T09:15:28.184Z,30.45
2019-06-26T09:17:58.587Z,30.41
2019-06-26T09:20:35.988Z,30.45
2019-06-26T09:23:06.436Z,30.52
2019-06-26T09:25:36.883Z,30.66
2019-06-26T09:28:07.769Z,30.76
2019-06-26T09:30:38.069Z,30.82
2019-06-26T09:33:08.430Z,30.70
2019-06-26T09:35:38.853Z,30.74
2019-06-26T09:38:09.231Z,30.77
2019-06-26T09:40:40.608Z,30.79
2019-06-26T09:43:11.011Z,30.76
2019-06-26T09:45:41.363Z,30.69
2019-06-26T09:48:13.291Z,30.59
2019-06-26T09:50:43.726Z,30.58
2019-06-26T09:53:14.072Z,30.42
2019-06-26T09:55:44.455Z,30.16
2019-06-26T09:58:14.918Z,30.03
2019-06-26T10:00:45.371Z,30.06
2019-06-26T10:03:15.787Z,29.98
2019-06-26T10:05:46.226Z,30.07
2019-06-26T10:08:16.731Z,30.15
2019-06-26T10:10:47.278Z,30.25
2019-06-26T10:13:17.951Z,30.33
2019-06-26T10:15:48.530Z,30.39
2019-06-26T10:18:19.863Z,30.37
2019-06-26T10:20:50.477Z,30.42
2019-06-26T10:23:20.949Z,30.57
2019-06-26T10:25:51.275Z,30.56
2019-06-26T10:28:21.704Z,30.43
2019-06-26T10:30:52.152Z,30.21
2019-06-26T10:33:22.494Z,30.20
2019-06-26T10:35:52.872Z,30.29
2019-06-26T10:38:23.368Z,30.34
2019-06-26T10:40:53.815Z,30.27
2019-06-26T10:43:25.106Z,30.12
2019-06-26T10:45:55.459Z,30.09
2019-06-26T10:48:26.010Z,29.85
2019-06-26T10:50:58.752Z,29.85
2019-06-26T10:53:28.578Z,29.84
2019-06-26T10:55:59.542Z,29.97
2019-06-26T10:58:29.933Z,30.00
2019-06-26T11:01:00.305Z,30.03
2019-06-26T11:03:30.838Z,29.82
2019-06-26T11:06:01.487Z,29.84
2019-06-26T11:08:31.947Z,29.87
2019-06-26T11:11:02.346Z,29.74
2019-06-26T11:13:32.785Z,29.68
2019-06-26T11:16:03.697Z,29.59
2019-06-26T11:18:34.060Z,29.77
2019-06-26T11:21:04.507Z,29.95
2019-06-26T11:23:34.831Z,29.97
2019-06-26T11:26:05.158Z,29.75
2019-06-26T11:28:35.674Z,29.65
2019-06-26T11:31:06.613Z,29.76
2019-06-26T11:33:37.104Z,29.71
2019-06-26T11:36:08.005Z,29.53
2019-06-26T11:38:38.341Z,29.56
2019-06-26T11:41:09.393Z,29.57
2019-06-26T11:43:39.806Z,29.52
2019-06-26T11:46:10.181Z,29.62
2019-06-26T11:48:40.653Z,29.68
2019-06-26T11:51:11.109Z,29.71
2019-06-26T11:53:41.890Z,29.78
2019-06-26T11:56:12.857Z,29.65
2019-06-26T11:58:43.688Z,29.71
2019-06-26T12:01:14.090Z,29.71
2019-06-26T12:03:44.671Z,29.80
2019-06-26T12:06:19.243Z,29.88
2019-06-26T12:08:47.873Z,29.65
2019-06-26T12:11:18.616Z,29.68
2019-06-26T12:13:49.575Z,29.66
2019-06-26T12:16:19.960Z,29.66
2019-06-26T12:18:50.402Z,29.90
2019-06-26T12:21:21.070Z,29.80
2019-06-26T12:24:01.239Z,29.75
2019-06-26T12:26:31.773Z,29.76
2019-06-26T12:29:02.359Z,29.96
2019-06-26T12:31:32.708Z,30.03
2019-06-26T12:34:03.161Z,29.89
2019-06-26T12:36:33.789Z,29.89
2019-06-26T12:39:05.781Z,29.96
2019-06-26T12:41:36.090Z,29.89
2019-06-26T12:44:06.481Z,29.72
2019-06-26T12:46:37.054Z,29.57
2019-06-26T12:49:07.425Z,29.56
2019-06-26T12:51:40.987Z,29.51
2019-06-26T12:54:12.400Z,29.52
2019-06-26T12:56:42.972Z,29.53
2019-06-26T12:59:13.345Z,29.54
2019-06-26T13:01:43.795Z,29.61
2019-06-26T13:04:14.489Z,29.74
2019-06-26T13:06:44.864Z,29.58
2019-06-26T13:09:15.233Z,29.52
2019-06-26T13:11:45.685Z,29.47
2019-06-26T13:14:16.113Z,29.46
2019-06-26T13:16:46.504Z,29.40
2019-06-26T13:19:16.950Z,29.47
2019-06-26T13:21:47.701Z,29.46
2019-06-26T13:24:18.155Z,29.46
2019-06-26T13:26:48.795Z,29.33
2019-06-26T13:29:19.134Z,29.36
2019-06-26T13:31:49.589Z,29.37
2019-06-26T13:34:20.251Z,29.27
2019-06-26T13:36:50.581Z,29.17
2019-06-26T13:39:21.375Z,29.22
2019-06-26T13:41:52.485Z,29.37
2019-06-26T13:44:24.710Z,29.33
2019-06-26T13:46:55.278Z,29.36
2019-06-26T13:49:25.702Z,29.37
2019-06-26T13:51:56.213Z,29.34
2019-06-26T13:54:26.800Z,29.34
2019-06-26T13:56:57.205Z,29.31
2019-06-26T13:59:27.608Z,29.18
2019-06-26T14:01:58.088Z,29.07
2019-06-26T14:04:28.482Z,28.97
2019-06-26T14:06:58.920Z,28.90
2019-06-26T14:09:29.343Z,29.01
2019-06-26T14:11:59.712Z,28.84
2019-06-26T14:14:52.713Z,28.72
2019-06-26T14:17:02.585Z,28.67
2019-06-26T14:19:33.162Z,28.55
2019-06-26T14:22:03.702Z,28.58
2019-06-26T14:24:34.321Z,28.63
2019-06-26T14:27:04.712Z,28.53
2019-06-26T14:29:35.136Z,28.55
2019-06-26T14:32:05.624Z,28.65
2019-06-26T14:34:38.126Z,28.77
2019-06-26T14:37:08.588Z,28.66
2019-06-26T14:39:41.058Z,28.62
2019-06-26T14:42:11.105Z,28.72
2019-06-26T14:44:41.711Z,28.65
2019-06-26T14:47:12.086Z,28.55
2019-06-26T14:49:42.509Z,28.53
2019-06-26T14:52:12.945Z,28.48
2019-06-26T14:54:43.373Z,28.44
2019-06-26T14:57:14.227Z,28.45
2019-06-26T14:59:45.835Z,28.40
2019-06-26T15:02:16.234Z,28.47
2019-06-26T15:04:46.734Z,28.43
2019-06-26T15:07:18.768Z,28.41
2019-06-26T15:09:49.790Z,28.34
2019-06-26T15:12:20.347Z,28.25
2019-06-26T15:14:50.995Z,28.21
2019-06-26T15:17:24.400Z,28.21
2019-06-26T15:19:55.206Z,28.21
2019-06-26T15:22:25.620Z,28.29
2019-06-26T15:24:56.263Z,28.32
2019-06-26T15:27:27.300Z,28.36
2019-06-26T15:29:57.642Z,28.48
2019-06-26T15:32:29.021Z,28.47
2019-06-26T15:34:59.917Z,28.32
2019-06-26T15:37:30.390Z,28.33
2019-06-26T15:40:00.735Z,28.19
2019-06-26T15:42:31.456Z,28.22
2019-06-26T15:45:01.950Z,28.21
2019-06-26T15:47:32.342Z,28.23
2019-06-26T15:50:02.882Z,28.18
2019-06-26T15:52:33.266Z,28.13
2019-06-26T15:55:04.654Z,28.20
2019-06-26T15:57:36.448Z,28.13
2019-06-26T16:00:07.497Z,28.05
2019-06-26T16:02:37.920Z,27.90
2019-06-26T16:05:08.625Z,27.95
2019-06-26T16:07:39.005Z,27.86
2019-06-26T16:10:09.789Z,27.84
2019-06-26T16:12:40.163Z,27.90
2019-06-26T16:15:11.140Z,27.71
2019-06-26T16:17:50.411Z,27.85
2019-06-26T16:20:20.834Z,27.88
2019-06-26T16:22:51.295Z,27.88
2019-06-26T16:25:21.912Z,27.80
2019-06-26T16:28:04.674Z,27.71
2019-06-26T16:30:24.365Z,27.64
2019-06-26T16:32:56.939Z,27.65
2019-06-26T16:35:27.156Z,27.66
2019-06-26T16:37:57.668Z,27.47
2019-06-26T16:40:28.261Z,27.38
2019-06-26T16:42:58.971Z,27.32
2019-06-26T16:45:29.401Z,27.33
2019-06-26T16:47:59.936Z,27.31
2019-06-26T16:50:30.598Z,27.25
2019-06-26T16:53:00.944Z,27.26
2019-06-26T16:55:31.477Z,27.21
2019-06-26T16:58:01.878Z,27.17
2019-06-26T17:00:32.417Z,27.14
2019-06-26T17:03:02.970Z,27.04
2019-06-26T17:05:33.431Z,27.03
2019-06-26T17:08:03.828Z,27.06
2019-06-26T17:10:34.246Z,26.84
2019-06-26T17:13:04.629Z,26.82
2019-06-26T17:15:35.061Z,26.81
2019-06-26T17:18:05.618Z,26.77
2019-06-26T17:20:35.979Z,26.75
2019-06-26T17:23:06.783Z,26.75
2019-06-26T17:25:37.317Z,26.68
2019-06-26T17:28:07.717Z,26.68
2019-06-26T17:30:38.546Z,26.63
2019-06-26T17:33:09.144Z,26.58
2019-06-26T17:35:39.493Z,26.58
2019-06-26T17:38:09.825Z,26.50
2019-06-26T17:40:41.006Z,26.36
2019-06-26T17:43:12.946Z,26.36
2019-06-26T17:45:43.726Z,26.34
2019-06-26T17:48:14.204Z,26.27
2019-06-26T17:50:44.674Z,26.25
2019-06-26T17:53:21.613Z,26.15
2019-06-26T17:55:47.263Z,26.16
2019-06-26T17:58:17.726Z,26.07
2019-06-26T18:00:48.153Z,26.06
2019-06-26T18:03:18.649Z,26.00
2019-06-26T18:05:49.025Z,25.94
2019-06-26T18:08:19.437Z,25.92
2019-06-26T18:10:49.890Z,25.92
2019-06-26T18:13:20.424Z,25.83
2019-06-26T18:15:50.839Z,25.79
2019-06-26T18:18:21.335Z,25.72
2019-06-26T18:20:51.784Z,25.75
2019-06-26T18:23:36.706Z,25.75
2019-06-26T18:26:11.541Z,25.66
2019-06-26T18:28:26.551Z,25.64
2019-06-26T18:30:57.063Z,25.57
2019-06-26T18:33:27.752Z,25.57
2019-06-26T18:35:58.148Z,25.52
2019-06-26T18:38:30.594Z,25.52
2019-06-26T18:41:01.047Z,25.54
2019-06-26T18:43:31.434Z,25.48
2019-06-26T18:46:01.900Z,25.44
2019-06-26T18:48:32.439Z,25.41
2019-06-26T18:51:03.193Z,25.31
2019-06-26T18:53:33.611Z,25.33
2019-06-26T18:56:04.660Z,25.31
2019-06-26T18:58:35.067Z,25.31
2019-06-26T19:01:05.447Z,25.32
2019-06-26T19:03:36.363Z,25.29
2019-06-26T19:06:06.760Z,25.29
2019-06-26T19:08:37.167Z,25.24
2019-06-26T19:11:07.616Z,25.23
2019-06-26T19:13:37.965Z,25.17
2019-06-26T19:16:08.346Z,25.23
2019-06-26T19:18:38.755Z,25.22
2019-06-26T19:21:10.218Z,25.11
2019-06-26T19:23:40.858Z,25.07
2019-06-26T19:26:11.184Z,24.99
2019-06-26T19:28:41.879Z,24.96
2019-06-26T19:31:12.316Z,24.86
2019-06-26T19:33:45.624Z,24.77
2019-06-26T19:36:14.921Z,24.75
2019-06-26T19:38:45.432Z,24.70
2019-06-26T19:41:15.812Z,24.76
2019-06-26T19:43:46.242Z,24.63
2019-06-26T19:46:16.644Z,24.59
2019-06-26T19:48:46.999Z,24.64
2019-06-26T19:51:17.395Z,24.67
2019-06-26T19:53:48.112Z,24.66
2019-06-26T19:56:20.243Z,24.70
2019-06-26T19:58:50.796Z,24.66
2019-06-26T20:01:21.336Z,24.68
2019-06-26T20:03:51.735Z,24.73
2019-06-26T20:06:22.755Z,24.70
2019-06-26T20:08:57.551Z,24.66
2019-06-26T20:11:26.855Z,24.69
2019-06-26T20:13:57.842Z,24.69
2019-06-26T20:16:28.488Z,24.77
2019-06-26T20:18:58.842Z,24.72
2019-06-26T20:21:29.227Z,24.69
2019-06-26T20:23:59.720Z,24.76
2019-06-26T20:26:30.076Z,24.71
2019-06-26T20:29:00.390Z,24.71
2019-06-26T20:31:31.319Z,24.74
2019-06-26T20:34:01.653Z,24.70
2019-06-26T20:36:32.014Z,24.75
2019-06-26T20:39:02.452Z,24.83
2019-06-26T20:41:32.795Z,24.84
2019-06-26T20:44:03.755Z,24.87
2019-06-26T20:46:34.210Z,24.89
2019-06-26T20:49:04.794Z,24.95
2019-06-26T20:51:37.353Z,24.90
2019-06-26T20:54:08.066Z,24.87
2019-06-26T20:56:39.092Z,24.85
2019-06-26T20:59:09.455Z,24.89
2019-06-26T21:01:40.058Z,24.94
2019-06-26T21:04:11.526Z,24.91
2019-06-26T21:06:42.430Z,24.83
2019-06-26T21:09:12.929Z,24.79
2019-06-26T21:11:43.356Z,24.78
2019-06-26T21:14:13.710Z,24.71
2019-06-26T21:16:44.219Z,24.67
2019-06-26T21:19:14.737Z,24.73
2019-06-26T21:21:45.105Z,24.73
2019-06-26T21:24:15.606Z,24.60
2019-06-26T21:26:46.458Z,24.47
2019-06-26T21:29:17.023Z,24.45
2019-06-26T21:31:47.615Z,24.44
2019-06-26T21:34:18.152Z,24.43
2019-06-26T21:36:48.892Z,24.35
2019-06-26T21:39:19.440Z,24.36
2019-06-26T21:41:49.890Z,24.32
2019-06-26T21:44:20.432Z,24.28
2019-06-26T21:49:34.708Z,24.32
2019-06-26T21:52:05.787Z,24.30
2019-06-26T21:54:36.373Z,24.27
2019-06-26T21:57:11.466Z,24.27
2019-06-26T22:00:04.138Z,24.31
2019-06-26T22:02:35.443Z,24.30
2019-06-26T22:05:07.558Z,24.35
2019-06-26T22:07:51.309Z,24.35
2019-06-26T22:10:29.020Z,24.31
2019-06-26T22:12:59.709Z,24.23
2019-06-26T22:15:30.329Z,24.19
2019-06-26T22:18:00.737Z,24.16
2019-06-26T22:20:31.151Z,24.17
2019-06-26T22:23:01.677Z,24.12
2019-06-26T22:25:32.597Z,24.02
2019-06-26T22:28:03.135Z,23.97
2019-06-26T22:30:33.500Z,23.92
2019-06-26T22:33:05.068Z,23.84
2019-06-26T22:35:35.605Z,23.82
2019-06-26T22:38:06.121Z,23.73
2019-06-26T22:40:36.500Z,23.65
2019-06-26T22:43:07.567Z,23.68
2019-06-26T22:45:45.455Z,23.61
2019-06-26T22:48:16.010Z,23.66
2019-06-26T22:50:52.299Z,23.66
2019-06-26T22:53:22.762Z,23.62
2019-06-26T22:56:07.446Z,23.65
2019-06-26T22:58:37.001Z,23.59
2019-06-26T23:01:11.990Z,23.62
2019-06-26T23:03:42.567Z,23.63
2019-06-26T23:06:14.204Z,23.63
2019-06-26T23:08:44.701Z,23.65
2019-06-26T23:11:15.340Z,23.65
2019-06-26T23:13:46.728Z,23.64
2019-06-26T23:16:17.451Z,23.61
2019-06-26T23:19:20.037Z,23.62
2019-06-26T23:21:51.715Z,23.65
2019-06-26T23:24:22.153Z,23.68
2019-06-26T23:26:52.675Z,23.74
2019-06-26T23:29:23.073Z,23.70
2019-06-26T23:31:53.563Z,23.75
2019-06-26T23:34:23.887Z,23.73
2019-06-26T23:36:54.239Z,23.73
2019-06-26T23:39:24.805Z,23.64
2019-06-26T23:41:55.207Z,23.60
2019-06-26T23:44:25.624Z,23.59
2019-06-26T23:46:56.394Z,23.60
2019-06-26T23:49:26.713Z,23.64
2019-06-26T23:51:57.054Z,23.58
2019-06-26T23:54:28.546Z,23.58
2019-06-26T23:57:15.166Z,23.64
2019-06-26T23:59:45.537Z,23.64
